sensor_id;sensor_type;location;lat;lon;timestamp;P1;durP1;ratioP1;P2;durP2;ratioP2
62903;SDS011;49000;50.698;13.322;2023-06-10T00:02:10;6.47;;;5.80;;
62903;SDS011;49000;50.698;13.322;2023-06-10T00:04:36;5.87;;;5.30;;
62903;SDS011;49000;50.698;13.322;2023-06-10T00:07:04;6.07;;;5.47;;
62903;SDS011;49000;50.698;13.322;2023-06-10T00:09:36;7.07;;;6.23;;
62903;SDS011;49000;50.698;13.322;2023-06-10T00:12:06;6.50;;;5.97;;
62903;SDS011;49000;50.698;13.322;2023-06-10T00:14:38;7.80;;;6.30;;
62903;SDS011;49000;50.698;13.322;2023-06-10T00:17:06;6.30;;;5.70;;
62903;SDS011;49000;50.698;13.322;2023-06-10T00:19:34;7.53;;;6.77;;
62903;SDS011;49000;50.698;13.322;2023-06-10T00:22:01;7.57;;;6.87;;
62903;SDS011;49000;50.698;13.322;2023-06-10T00:24:27;7.87;;;6.30;;
62903;SDS011;49000;50.698;13.322;2023-06-10T00:26:53;7.90;;;6.40;;
62903;SDS011;49000;50.698;13.322;2023-06-10T00:29:18;7.20;;;6.50;;
62903;SDS011;49000;50.698;13.322;2023-06-10T00:31:44;6.93;;;6.23;;
62903;SDS011;49000;50.698;13.322;2023-06-10T00:34:11;6.53;;;5.93;;
62903;SDS011;49000;50.698;13.322;2023-06-10T00:36:36;7.27;;;6.40;;
62903;SDS011;49000;50.698;13.322;2023-06-10T00:39:02;8.30;;;6.00;;
62903;SDS011;49000;50.698;13.322;2023-06-10T00:41:29;7.13;;;6.43;;
62903;SDS011;49000;50.698;13.322;2023-06-10T00:43:55;6.93;;;6.13;;
62903;SDS011;49000;50.698;13.322;2023-06-10T00:46:21;6.70;;;6.10;;
62903;SDS011;49000;50.698;13.322;2023-06-10T00:48:49;6.90;;;6.20;;
62903;SDS011;49000;50.698;13.322;2023-06-10T00:51:15;7.87;;;6.40;;
62903;SDS011;49000;50.698;13.322;2023-06-10T00:53:42;7.10;;;5.67;;
62903;SDS011;49000;50.698;13.322;2023-06-10T00:56:08;8.30;;;6.33;;
62903;SDS011;49000;50.698;13.322;2023-06-10T00:58:35;6.20;;;5.60;;
62903;SDS011;49000;50.698;13.322;2023-06-10T01:01:01;6.40;;;5.80;;
62903;SDS011;49000;50.698;13.322;2023-06-10T01:03:26;7.80;;;5.83;;
62903;SDS011;49000;50.698;13.322;2023-06-10T01:06:00;7.67;;;6.40;;
62903;SDS011;49000;50.698;13.322;2023-06-10T01:08:33;6.93;;;6.23;;
62903;SDS011;49000;50.698;13.322;2023-06-10T01:11:07;6.73;;;5.50;;
62903;SDS011;49000;50.698;13.322;2023-06-10T01:13:45;6.93;;;5.70;;
62903;SDS011;49000;50.698;13.322;2023-06-10T01:16:12;7.67;;;6.97;;
62903;SDS011;49000;50.698;13.322;2023-06-10T01:18:39;7.30;;;6.50;;
62903;SDS011;49000;50.698;13.322;2023-06-10T01:21:05;7.40;;;6.70;;
62903;SDS011;49000;50.698;13.322;2023-06-10T01:23:32;7.93;;;7.13;;
62903;SDS011;49000;50.698;13.322;2023-06-10T01:25:59;7.33;;;6.63;;
62903;SDS011;49000;50.698;13.322;2023-06-10T01:28:34;8.97;;;7.50;;
62903;SDS011;49000;50.698;13.322;2023-06-10T01:34:28;7.70;;;6.90;;
62903;SDS011;49000;50.698;13.322;2023-06-10T01:36:57;8.77;;;7.97;;
62903;SDS011;49000;50.698;13.322;2023-06-10T01:39:24;8.37;;;7.57;;
62903;SDS011;49000;50.698;13.322;2023-06-10T01:41:50;8.00;;;7.30;;
62903;SDS011;49000;50.698;13.322;2023-06-10T01:44:19;8.27;;;6.90;;
62903;SDS011;49000;50.698;13.322;2023-06-10T01:46:45;8.57;;;7.77;;
62903;SDS011;49000;50.698;13.322;2023-06-10T01:49:11;9.20;;;6.97;;
62903;SDS011;49000;50.698;13.322;2023-06-10T01:51:36;7.73;;;6.93;;
62903;SDS011;49000;50.698;13.322;2023-06-10T01:54:02;7.43;;;6.73;;
62903;SDS011;49000;50.698;13.322;2023-06-10T01:56:28;8.83;;;6.63;;
62903;SDS011;49000;50.698;13.322;2023-06-10T01:58:53;7.13;;;6.53;;
62903;SDS011;49000;50.698;13.322;2023-06-10T02:01:23;7.47;;;6.77;;
62903;SDS011;49000;50.698;13.322;2023-06-10T02:03:49;7.70;;;6.90;;
62903;SDS011;49000;50.698;13.322;2023-06-10T02:06:15;7.80;;;6.23;;
62903;SDS011;49000;50.698;13.322;2023-06-10T02:08:40;7.77;;;6.47;;
62903;SDS011;49000;50.698;13.322;2023-06-10T02:11:06;7.33;;;6.00;;
62903;SDS011;49000;50.698;13.322;2023-06-10T02:13:32;6.87;;;6.17;;
62903;SDS011;49000;50.698;13.322;2023-06-10T02:15:57;6.43;;;5.73;;
62903;SDS011;49000;50.698;13.322;2023-06-10T02:18:23;7.37;;;5.80;;
62903;SDS011;49000;50.698;13.322;2023-06-10T02:20:48;7.47;;;5.80;;
62903;SDS011;49000;50.698;13.322;2023-06-10T02:23:14;6.57;;;5.87;;
62903;SDS011;49000;50.698;13.322;2023-06-10T02:25:40;7.97;;;6.67;;
62903;SDS011;49000;50.698;13.322;2023-06-10T02:28:05;9.03;;;6.97;;
62903;SDS011;49000;50.698;13.322;2023-06-10T02:30:30;8.73;;;7.17;;
62903;SDS011;49000;50.698;13.322;2023-06-10T02:32:56;7.90;;;7.20;;
62903;SDS011;49000;50.698;13.322;2023-06-10T02:35:21;7.37;;;6.67;;
62903;SDS011;49000;50.698;13.322;2023-06-10T02:37:49;7.97;;;6.80;;
62903;SDS011;49000;50.698;13.322;2023-06-10T02:40:15;8.33;;;6.80;;
62903;SDS011;49000;50.698;13.322;2023-06-10T02:42:40;7.37;;;6.67;;
62903;SDS011;49000;50.698;13.322;2023-06-10T02:45:06;9.93;;;8.93;;
62903;SDS011;49000;50.698;13.322;2023-06-10T02:47:32;10.43;;;8.27;;
62903;SDS011;49000;50.698;13.322;2023-06-10T02:49:58;8.93;;;6.83;;
62903;SDS011;49000;50.698;13.322;2023-06-10T02:52:23;7.97;;;7.17;;
62903;SDS011;49000;50.698;13.322;2023-06-10T02:54:49;8.77;;;7.07;;
62903;SDS011;49000;50.698;13.322;2023-06-10T02:57:15;7.83;;;6.97;;
62903;SDS011;49000;50.698;13.322;2023-06-10T02:59:40;8.33;;;6.17;;
62903;SDS011;49000;50.698;13.322;2023-06-10T03:02:06;7.43;;;6.73;;
62903;SDS011;49000;50.698;13.322;2023-06-10T03:04:32;7.73;;;6.40;;
62903;SDS011;49000;50.698;13.322;2023-06-10T03:06:57;7.07;;;6.37;;
62903;SDS011;49000;50.698;13.322;2023-06-10T03:09:25;7.87;;;6.03;;
62903;SDS011;49000;50.698;13.322;2023-06-10T03:11:50;7.97;;;7.17;;
62903;SDS011;49000;50.698;13.322;2023-06-10T03:14:16;8.20;;;7.30;;
62903;SDS011;49000;50.698;13.322;2023-06-10T03:16:41;8.07;;;7.10;;
62903;SDS011;49000;50.698;13.322;2023-06-10T03:19:07;8.63;;;7.20;;
62903;SDS011;49000;50.698;13.322;2023-06-10T03:21:36;8.00;;;7.27;;
62903;SDS011;49000;50.698;13.322;2023-06-10T03:24:02;10.30;;;8.97;;
62903;SDS011;49000;50.698;13.322;2023-06-10T03:26:28;9.13;;;8.17;;
62903;SDS011;49000;50.698;13.322;2023-06-10T03:28:53;13.83;;;10.10;;
62903;SDS011;49000;50.698;13.322;2023-06-10T03:31:19;9.57;;;8.67;;
62903;SDS011;49000;50.698;13.322;2023-06-10T03:33:44;8.93;;;8.13;;
62903;SDS011;49000;50.698;13.322;2023-06-10T03:36:10;9.83;;;8.10;;
62903;SDS011;49000;50.698;13.322;2023-06-10T03:38:35;11.20;;;10.10;;
62903;SDS011;49000;50.698;13.322;2023-06-10T03:41:01;9.93;;;8.90;;
62903;SDS011;49000;50.698;13.322;2023-06-10T03:43:27;14.30;;;10.40;;
62903;SDS011;49000;50.698;13.322;2023-06-10T03:45:53;9.70;;;8.80;;
62903;SDS011;49000;50.698;13.322;2023-06-10T03:48:18;8.53;;;7.73;;
62903;SDS011;49000;50.698;13.322;2023-06-10T03:50:44;9.90;;;7.60;;
62903;SDS011;49000;50.698;13.322;2023-06-10T03:53:09;9.20;;;8.30;;
62903;SDS011;49000;50.698;13.322;2023-06-10T03:55:35;9.20;;;8.13;;
62903;SDS011;49000;50.698;13.322;2023-06-10T03:58:01;8.63;;;7.83;;
62903;SDS011;49000;50.698;13.322;2023-06-10T04:00:26;9.50;;;8.50;;
62903;SDS011;49000;50.698;13.322;2023-06-10T04:02:52;8.87;;;7.97;;
62903;SDS011;49000;50.698;13.322;2023-06-10T04:05:18;8.90;;;8.00;;
62903;SDS011;49000;50.698;13.322;2023-06-10T04:07:47;10.40;;;9.40;;
62903;SDS011;49000;50.698;13.322;2023-06-10T04:10:13;9.77;;;8.73;;
62903;SDS011;49000;50.698;13.322;2023-06-10T04:12:39;9.53;;;8.47;;
62903;SDS011;49000;50.698;13.322;2023-06-10T04:15:05;8.67;;;7.77;;
62903;SDS011;49000;50.698;13.322;2023-06-10T04:17:32;10.53;;;8.23;;
62903;SDS011;49000;50.698;13.322;2023-06-10T04:19:57;8.40;;;7.37;;
62903;SDS011;49000;50.698;13.322;2023-06-10T04:22:23;9.00;;;8.17;;
62903;SDS011;49000;50.698;13.322;2023-06-10T04:24:48;8.53;;;7.73;;
62903;SDS011;49000;50.698;13.322;2023-06-10T04:27:14;8.50;;;7.60;;
62903;SDS011;49000;50.698;13.322;2023-06-10T04:29:40;8.30;;;7.37;;
62903;SDS011;49000;50.698;13.322;2023-06-10T04:32:06;7.70;;;7.00;;
62903;SDS011;49000;50.698;13.322;2023-06-10T04:34:32;7.90;;;7.07;;
62903;SDS011;49000;50.698;13.322;2023-06-10T04:36:58;7.77;;;6.83;;
62903;SDS011;49000;50.698;13.322;2023-06-10T04:39:24;8.13;;;7.33;;
62903;SDS011;49000;50.698;13.322;2023-06-10T04:41:49;7.90;;;7.20;;
62903;SDS011;49000;50.698;13.322;2023-06-10T04:44:15;7.43;;;6.73;;
62903;SDS011;49000;50.698;13.322;2023-06-10T04:46:40;9.23;;;6.90;;
62903;SDS011;49000;50.698;13.322;2023-06-10T04:49:05;7.80;;;6.80;;
62903;SDS011;49000;50.698;13.322;2023-06-10T04:51:31;7.97;;;7.17;;
62903;SDS011;49000;50.698;13.322;2023-06-10T04:53:57;8.00;;;7.20;;
62903;SDS011;49000;50.698;13.322;2023-06-10T04:56:23;7.27;;;6.40;;
62903;SDS011;49000;50.698;13.322;2023-06-10T04:58:49;9.47;;;6.63;;
62903;SDS011;49000;50.698;13.322;2023-06-10T05:01:14;8.33;;;7.07;;
62903;SDS011;49000;50.698;13.322;2023-06-10T05:03:40;7.50;;;6.80;;
62903;SDS011;49000;50.698;13.322;2023-06-10T05:06:05;7.83;;;7.03;;
62903;SDS011;49000;50.698;13.322;2023-06-10T05:08:31;7.67;;;6.93;;
62903;SDS011;49000;50.698;13.322;2023-06-10T05:10:56;6.97;;;6.37;;
62903;SDS011;49000;50.698;13.322;2023-06-10T05:13:23;7.60;;;6.90;;
62903;SDS011;49000;50.698;13.322;2023-06-10T05:15:48;8.13;;;7.33;;
62903;SDS011;49000;50.698;13.322;2023-06-10T05:18:14;7.53;;;6.40;;
62903;SDS011;49000;50.698;13.322;2023-06-10T05:20:39;8.77;;;7.00;;
62903;SDS011;49000;50.698;13.322;2023-06-10T05:23:05;7.17;;;6.47;;
62903;SDS011;49000;50.698;13.322;2023-06-10T05:25:30;10.13;;;9.17;;
62903;SDS011;49000;50.698;13.322;2023-06-10T05:27:56;10.60;;;9.60;;
62903;SDS011;49000;50.698;13.322;2023-06-10T05:30:22;10.70;;;9.63;;
62903;SDS011;49000;50.698;13.322;2023-06-10T05:32:49;9.63;;;8.17;;
62903;SDS011;49000;50.698;13.322;2023-06-10T05:35:16;8.60;;;7.63;;
62903;SDS011;49000;50.698;13.322;2023-06-10T05:37:41;8.77;;;7.97;;
62903;SDS011;49000;50.698;13.322;2023-06-10T05:40:07;8.20;;;7.40;;
62903;SDS011;49000;50.698;13.322;2023-06-10T05:42:33;7.70;;;7.00;;
62903;SDS011;49000;50.698;13.322;2023-06-10T05:44:59;7.40;;;6.67;;
62903;SDS011;49000;50.698;13.322;2023-06-10T05:47:24;7.30;;;6.57;;
62903;SDS011;49000;50.698;13.322;2023-06-10T05:49:50;7.70;;;6.90;;
62903;SDS011;49000;50.698;13.322;2023-06-10T05:52:16;8.20;;;7.40;;
62903;SDS011;49000;50.698;13.322;2023-06-10T05:54:43;8.17;;;7.30;;
62903;SDS011;49000;50.698;13.322;2023-06-10T05:57:08;8.37;;;7.57;;
62903;SDS011;49000;50.698;13.322;2023-06-10T05:59:35;7.77;;;6.97;;
62903;SDS011;49000;50.698;13.322;2023-06-10T06:02:00;8.27;;;7.47;;
62903;SDS011;49000;50.698;13.322;2023-06-10T06:04:26;7.37;;;6.67;;
62903;SDS011;49000;50.698;13.322;2023-06-10T06:06:51;8.65;;;7.40;;
62903;SDS011;49000;50.698;13.322;2023-06-10T06:09:17;7.97;;;6.45;;
62903;SDS011;49000;50.698;13.322;2023-06-10T06:11:42;7.95;;;6.55;;
62903;SDS011;49000;50.698;13.322;2023-06-10T06:14:07;8.00;;;7.20;;
62903;SDS011;49000;50.698;13.322;2023-06-10T06:16:33;7.13;;;6.43;;
62903;SDS011;49000;50.698;13.322;2023-06-10T06:18:58;7.88;;;5.85;;
62903;SDS011;49000;50.698;13.322;2023-06-10T06:21:24;7.05;;;6.35;;
62903;SDS011;49000;50.698;13.322;2023-06-10T06:23:49;6.75;;;6.15;;
62903;SDS011;49000;50.698;13.322;2023-06-10T06:26:15;7.20;;;5.72;;
62903;SDS011;49000;50.698;13.322;2023-06-10T06:28:40;8.85;;;6.05;;
62903;SDS011;49000;50.698;13.322;2023-06-10T06:31:06;6.20;;;5.70;;
62903;SDS011;49000;50.698;13.322;2023-06-10T06:33:32;8.93;;;6.50;;
62903;SDS011;49000;50.698;13.322;2023-06-10T06:35:57;6.72;;;6.03;;
62903;SDS011;49000;50.698;13.322;2023-06-10T06:38:25;7.35;;;6.30;;
62903;SDS011;49000;50.698;13.322;2023-06-10T06:40:50;8.25;;;6.20;;
62903;SDS011;49000;50.698;13.322;2023-06-10T06:43:16;12.38;;;6.70;;
62903;SDS011;49000;50.698;13.322;2023-06-10T06:45:43;8.98;;;6.78;;
62903;SDS011;49000;50.698;13.322;2023-06-10T06:48:11;9.93;;;7.40;;
62903;SDS011;49000;50.698;13.322;2023-06-10T06:50:37;9.52;;;8.55;;
62903;SDS011;49000;50.698;13.322;2023-06-10T06:53:03;9.10;;;8.02;;
62903;SDS011;49000;50.698;13.322;2023-06-10T06:55:29;9.45;;;6.75;;
62903;SDS011;49000;50.698;13.322;2023-06-10T06:57:55;9.55;;;8.02;;
62903;SDS011;49000;50.698;13.322;2023-06-10T07:00:20;7.97;;;7.15;;
62903;SDS011;49000;50.698;13.322;2023-06-10T07:02:46;7.18;;;6.47;;
62903;SDS011;49000;50.698;13.322;2023-06-10T07:05:11;9.43;;;7.25;;
62903;SDS011;49000;50.698;13.322;2023-06-10T07:07:37;7.40;;;6.70;;
62903;SDS011;49000;50.698;13.322;2023-06-10T07:10:02;8.38;;;7.18;;
62903;SDS011;49000;50.698;13.322;2023-06-10T07:12:28;6.80;;;6.10;;
62903;SDS011;49000;50.698;13.322;2023-06-10T07:14:54;7.43;;;6.63;;
62903;SDS011;49000;50.698;13.322;2023-06-10T07:17:19;8.05;;;7.25;;
62903;SDS011;49000;50.698;13.322;2023-06-10T07:19:45;7.25;;;6.55;;
62903;SDS011;49000;50.698;13.322;2023-06-10T07:22:11;12.02;;;7.40;;
62903;SDS011;49000;50.698;13.322;2023-06-10T07:24:36;9.13;;;8.20;;
62903;SDS011;49000;50.698;13.322;2023-06-10T07:27:02;8.95;;;7.40;;
62903;SDS011;49000;50.698;13.322;2023-06-10T07:29:27;7.93;;;7.13;;
62903;SDS011;49000;50.698;13.322;2023-06-10T07:31:53;10.98;;;8.27;;
62903;SDS011;49000;50.698;13.322;2023-06-10T07:34:18;8.20;;;7.40;;
62903;SDS011;49000;50.698;13.322;2023-06-10T07:36:44;9.65;;;7.55;;
62903;SDS011;49000;50.698;13.322;2023-06-10T07:39:10;7.95;;;7.15;;
62903;SDS011;49000;50.698;13.322;2023-06-10T07:41:36;8.40;;;7.60;;
62903;SDS011;49000;50.698;13.322;2023-06-10T07:44:02;8.70;;;7.78;;
62903;SDS011;49000;50.698;13.322;2023-06-10T07:46:27;7.63;;;6.93;;
62903;SDS011;49000;50.698;13.322;2023-06-10T07:48:53;8.32;;;7.47;;
62903;SDS011;49000;50.698;13.322;2023-06-10T07:51:19;7.50;;;6.80;;
62903;SDS011;49000;50.698;13.322;2023-06-10T07:53:46;7.40;;;6.70;;
62903;SDS011;49000;50.698;13.322;2023-06-10T07:56:11;7.97;;;7.13;;
62903;SDS011;49000;50.698;13.322;2023-06-10T07:58:37;8.63;;;7.20;;
62903;SDS011;49000;50.698;13.322;2023-06-10T08:01:02;8.00;;;7.20;;
62903;SDS011;49000;50.698;13.322;2023-06-10T08:03:28;7.65;;;6.95;;
62903;SDS011;49000;50.698;13.322;2023-06-10T08:05:53;7.97;;;7.25;;
62903;SDS011;49000;50.698;13.322;2023-06-10T08:08:18;7.93;;;7.13;;
62903;SDS011;49000;50.698;13.322;2023-06-10T08:10:44;8.25;;;7.32;;
62903;SDS011;49000;50.698;13.322;2023-06-10T08:13:10;7.80;;;7.10;;
62903;SDS011;49000;50.698;13.322;2023-06-10T08:15:35;8.48;;;6.70;;
62903;SDS011;49000;50.698;13.322;2023-06-10T08:18:00;6.97;;;6.32;;
62903;SDS011;49000;50.698;13.322;2023-06-10T08:20:26;6.97;;;6.38;;
62903;SDS011;49000;50.698;13.322;2023-06-10T08:22:52;7.63;;;6.80;;
62903;SDS011;49000;50.698;13.322;2023-06-10T08:25:17;8.52;;;6.90;;
62903;SDS011;49000;50.698;13.322;2023-06-10T08:27:43;8.65;;;6.35;;
62903;SDS011;49000;50.698;13.322;2023-06-10T08:30:08;7.82;;;6.53;;
62903;SDS011;49000;50.698;13.322;2023-06-10T08:32:35;7.75;;;6.10;;
62903;SDS011;49000;50.698;13.322;2023-06-10T08:35:01;7.13;;;6.15;;
62903;SDS011;49000;50.698;13.322;2023-06-10T08:37:27;9.48;;;6.90;;
62903;SDS011;49000;50.698;13.322;2023-06-10T08:39:52;9.18;;;7.68;;
62903;SDS011;49000;50.698;13.322;2023-06-10T08:42:22;8.23;;;7.00;;
62903;SDS011;49000;50.698;13.322;2023-06-10T08:44:48;8.25;;;7.40;;
62903;SDS011;49000;50.698;13.322;2023-06-10T08:47:18;8.40;;;7.50;;
62903;SDS011;49000;50.698;13.322;2023-06-10T08:49:47;7.88;;;7.07;;
62903;SDS011;49000;50.698;13.322;2023-06-10T08:52:15;8.27;;;6.78;;
62903;SDS011;49000;50.698;13.322;2023-06-10T08:54:57;7.38;;;6.68;;
62903;SDS011;49000;50.698;13.322;2023-06-10T08:57:25;8.02;;;6.40;;
62903;SDS011;49000;50.698;13.322;2023-06-10T08:59:52;7.85;;;6.50;;
62903;SDS011;49000;50.698;13.322;2023-06-10T09:02:19;8.07;;;6.40;;
62903;SDS011;49000;50.698;13.322;2023-06-10T09:04:46;8.52;;;6.80;;
62903;SDS011;49000;50.698;13.322;2023-06-10T09:07:13;7.03;;;6.30;;
62903;SDS011;49000;50.698;13.322;2023-06-10T09:09:39;7.00;;;6.40;;
62903;SDS011;49000;50.698;13.322;2023-06-10T09:12:07;7.40;;;6.57;;
62903;SDS011;49000;50.698;13.322;2023-06-10T09:14:33;8.05;;;6.55;;
62903;SDS011;49000;50.698;13.322;2023-06-10T09:16:59;9.10;;;6.68;;
62903;SDS011;49000;50.698;13.322;2023-06-10T09:19:25;8.57;;;6.55;;
62903;SDS011;49000;50.698;13.322;2023-06-10T09:21:51;7.65;;;5.97;;
62903;SDS011;49000;50.698;13.322;2023-06-10T09:24:17;8.27;;;7.03;;
62903;SDS011;49000;50.698;13.322;2023-06-10T09:26:43;8.70;;;6.55;;
62903;SDS011;49000;50.698;13.322;2023-06-10T09:29:09;7.40;;;6.25;;
62903;SDS011;49000;50.698;13.322;2023-06-10T09:31:36;10.02;;;6.60;;
62903;SDS011;49000;50.698;13.322;2023-06-10T09:34:10;11.60;;;6.22;;
62903;SDS011;49000;50.698;13.322;2023-06-10T09:36:37;6.03;;;5.43;;
62903;SDS011;49000;50.698;13.322;2023-06-10T09:39:04;7.30;;;6.05;;
62903;SDS011;49000;50.698;13.322;2023-06-10T09:41:39;6.53;;;5.60;;
62903;SDS011;49000;50.698;13.322;2023-06-10T09:44:15;8.23;;;6.00;;
62903;SDS011;49000;50.698;13.322;2023-06-10T09:46:42;6.28;;;5.68;;
62903;SDS011;49000;50.698;13.322;2023-06-10T09:49:10;8.02;;;5.47;;
62903;SDS011;49000;50.698;13.322;2023-06-10T09:51:36;6.18;;;5.20;;
62903;SDS011;49000;50.698;13.322;2023-06-10T09:54:04;6.35;;;5.60;;
62903;SDS011;49000;50.698;13.322;2023-06-10T09:56:36;6.90;;;6.20;;
62903;SDS011;49000;50.698;13.322;2023-06-10T09:59:02;8.30;;;6.63;;
62903;SDS011;49000;50.698;13.322;2023-06-10T10:01:31;7.60;;;5.78;;
62903;SDS011;49000;50.698;13.322;2023-06-10T10:03:57;6.80;;;6.10;;
62903;SDS011;49000;50.698;13.322;2023-06-10T10:06:23;6.47;;;5.88;;
62903;SDS011;49000;50.698;13.322;2023-06-10T10:08:49;8.05;;;6.00;;
62903;SDS011;49000;50.698;13.322;2023-06-10T10:11:19;6.63;;;5.93;;
62903;SDS011;49000;50.698;13.322;2023-06-10T10:13:47;7.45;;;6.75;;
62903;SDS011;49000;50.698;13.322;2023-06-10T10:16:19;6.95;;;6.25;;
62903;SDS011;49000;50.698;13.322;2023-06-10T10:18:47;7.13;;;6.20;;
62903;SDS011;49000;50.698;13.322;2023-06-10T10:21:36;6.15;;;5.55;;
62903;SDS011;49000;50.698;13.322;2023-06-10T10:24:11;5.47;;;4.88;;
62903;SDS011;49000;50.698;13.322;2023-06-10T10:26:41;5.30;;;4.68;;
62903;SDS011;49000;50.698;13.322;2023-06-10T10:29:09;4.38;;;3.97;;
62903;SDS011;49000;50.698;13.322;2023-06-10T10:31:39;4.50;;;4.10;;
62903;SDS011;49000;50.698;13.322;2023-06-10T10:34:12;10.23;;;4.53;;
62903;SDS011;49000;50.698;13.322;2023-06-10T10:36:42;5.10;;;4.60;;
62903;SDS011;49000;50.698;13.322;2023-06-10T10:39:08;4.70;;;4.30;;
62903;SDS011;49000;50.698;13.322;2023-06-10T10:41:34;5.70;;;4.93;;
62903;SDS011;49000;50.698;13.322;2023-06-10T10:44:01;6.03;;;5.03;;
62903;SDS011;49000;50.698;13.322;2023-06-10T10:46:30;5.80;;;5.25;;
62903;SDS011;49000;50.698;13.322;2023-06-10T10:48:56;5.10;;;4.60;;
62903;SDS011;49000;50.698;13.322;2023-06-10T10:51:23;6.03;;;5.03;;
62903;SDS011;49000;50.698;13.322;2023-06-10T10:56:40;7.95;;;5.32;;
62903;SDS011;49000;50.698;13.322;2023-06-10T10:59:43;5.35;;;4.68;;
62903;SDS011;49000;50.698;13.322;2023-06-10T11:02:10;5.72;;;5.13;;
62903;SDS011;49000;50.698;13.322;2023-06-10T11:04:44;5.72;;;4.82;;
62903;SDS011;49000;50.698;13.322;2023-06-10T11:07:10;5.88;;;5.30;;
62903;SDS011;49000;50.698;13.322;2023-06-10T11:09:36;8.13;;;5.32;;
62903;SDS011;49000;50.698;13.322;2023-06-10T11:12:01;5.93;;;5.43;;
62903;SDS011;49000;50.698;13.322;2023-06-10T11:14:31;6.03;;;5.40;;
62903;SDS011;49000;50.698;13.322;2023-06-10T11:16:58;6.10;;;5.13;;
62903;SDS011;49000;50.698;13.322;2023-06-10T11:22:00;5.82;;;5.00;;
62903;SDS011;49000;50.698;13.322;2023-06-10T11:24:28;6.45;;;5.65;;
62903;SDS011;49000;50.698;13.322;2023-06-10T11:26:54;5.18;;;4.72;;
62903;SDS011;49000;50.698;13.322;2023-06-10T11:29:20;5.43;;;4.65;;
62903;SDS011;49000;50.698;13.322;2023-06-10T11:31:48;5.82;;;5.22;;
62903;SDS011;49000;50.698;13.322;2023-06-10T11:34:15;6.57;;;5.15;;
62903;SDS011;49000;50.698;13.322;2023-06-10T11:36:48;4.88;;;4.38;;
62903;SDS011;49000;50.698;13.322;2023-06-10T11:39:14;5.47;;;4.97;;
62903;SDS011;49000;50.698;13.322;2023-06-10T11:41:39;5.78;;;4.50;;
62903;SDS011;49000;50.698;13.322;2023-06-10T11:44:09;5.47;;;5.07;;
62903;SDS011;49000;50.698;13.322;2023-06-10T11:46:36;5.22;;;4.80;;
62903;SDS011;49000;50.698;13.322;2023-06-10T11:49:02;7.35;;;4.88;;
62903;SDS011;49000;50.698;13.322;2023-06-10T11:51:31;6.10;;;5.50;;
62903;SDS011;49000;50.698;13.322;2023-06-10T11:53:58;4.75;;;4.28;;
62903;SDS011;49000;50.698;13.322;2023-06-10T11:56:25;5.28;;;4.82;;
62903;SDS011;49000;50.698;13.322;2023-06-10T11:58:55;6.32;;;4.60;;
62903;SDS011;49000;50.698;13.322;2023-06-10T12:01:22;5.88;;;5.28;;
62903;SDS011;49000;50.698;13.322;2023-06-10T12:03:58;5.63;;;4.63;;
62903;SDS011;49000;50.698;13.322;2023-06-10T12:06:41;5.00;;;4.60;;
62903;SDS011;49000;50.698;13.322;2023-06-10T12:09:14;7.30;;;4.53;;
62903;SDS011;49000;50.698;13.322;2023-06-10T12:11:40;5.30;;;4.82;;
62903;SDS011;49000;50.698;13.322;2023-06-10T12:14:07;5.20;;;4.72;;
62903;SDS011;49000;50.698;13.322;2023-06-10T12:16:32;4.72;;;4.32;;
62903;SDS011;49000;50.698;13.322;2023-06-10T12:19:01;6.18;;;4.55;;
62903;SDS011;49000;50.698;13.322;2023-06-10T12:21:28;4.97;;;4.47;;
62903;SDS011;49000;50.698;13.322;2023-06-10T12:24:07;4.88;;;4.20;;
62903;SDS011;49000;50.698;13.322;2023-06-10T12:26:40;5.07;;;4.68;;
62903;SDS011;49000;50.698;13.322;2023-06-10T12:29:15;6.40;;;4.85;;
62903;SDS011;49000;50.698;13.322;2023-06-10T12:32:02;5.38;;;4.68;;
62903;SDS011;49000;50.698;13.322;2023-06-10T12:34:31;6.05;;;4.45;;
62903;SDS011;49000;50.698;13.322;2023-06-10T12:37:10;5.35;;;4.63;;
62903;SDS011;49000;50.698;13.322;2023-06-10T12:39:39;5.07;;;4.57;;
62903;SDS011;49000;50.698;13.322;2023-06-10T12:42:05;5.03;;;4.47;;
62903;SDS011;49000;50.698;13.322;2023-06-10T12:44:35;5.90;;;5.40;;
62903;SDS011;49000;50.698;13.322;2023-06-10T12:47:08;5.75;;;5.10;;
62903;SDS011;49000;50.698;13.322;2023-06-10T12:49:35;6.18;;;4.95;;
62903;SDS011;49000;50.698;13.322;2023-06-10T12:52:01;5.50;;;5.00;;
62903;SDS011;49000;50.698;13.322;2023-06-10T12:54:27;7.82;;;5.40;;
62903;SDS011;49000;50.698;13.322;2023-06-10T12:56:52;5.63;;;5.07;;
62903;SDS011;49000;50.698;13.322;2023-06-10T12:59:18;6.65;;;5.00;;
62903;SDS011;49000;50.698;13.322;2023-06-10T13:01:44;5.25;;;4.68;;
62903;SDS011;49000;50.698;13.322;2023-06-10T13:04:15;8.23;;;4.93;;
62903;SDS011;49000;50.698;13.322;2023-06-10T13:06:41;5.15;;;4.65;;
62903;SDS011;49000;50.698;13.322;2023-06-10T13:09:06;6.15;;;5.07;;
62903;SDS011;49000;50.698;13.322;2023-06-10T13:11:32;5.22;;;4.72;;
62903;SDS011;49000;50.698;13.322;2023-06-10T13:13:57;5.40;;;4.90;;
62903;SDS011;49000;50.698;13.322;2023-06-10T13:16:23;6.72;;;5.50;;
62903;SDS011;49000;50.698;13.322;2023-06-10T13:18:48;5.28;;;4.70;;
62903;SDS011;49000;50.698;13.322;2023-06-10T13:21:14;5.53;;;5.03;;
62903;SDS011;49000;50.698;13.322;2023-06-10T13:23:40;6.70;;;4.57;;
62903;SDS011;49000;50.698;13.322;2023-06-10T13:26:08;6.30;;;4.82;;
62903;SDS011;49000;50.698;13.322;2023-06-10T13:28:34;6.38;;;5.28;;
62903;SDS011;49000;50.698;13.322;2023-06-10T13:30:59;6.40;;;5.00;;
62903;SDS011;49000;50.698;13.322;2023-06-10T13:33:25;5.30;;;4.80;;
62903;SDS011;49000;50.698;13.322;2023-06-10T13:35:50;5.25;;;4.85;;
62903;SDS011;49000;50.698;13.322;2023-06-10T13:38:16;5.78;;;5.03;;
62903;SDS011;49000;50.698;13.322;2023-06-10T13:40:41;6.30;;;5.18;;
62903;SDS011;49000;50.698;13.322;2023-06-10T13:43:07;4.72;;;4.32;;
62903;SDS011;49000;50.698;13.322;2023-06-10T13:45:34;5.25;;;4.50;;
62903;SDS011;49000;50.698;13.322;2023-06-10T13:48:00;6.20;;;4.82;;
62903;SDS011;49000;50.698;13.322;2023-06-10T13:50:26;4.88;;;4.47;;
62903;SDS011;49000;50.698;13.322;2023-06-10T13:52:51;4.88;;;4.32;;
62903;SDS011;49000;50.698;13.322;2023-06-10T13:55:17;4.93;;;4.53;;
62903;SDS011;49000;50.698;13.322;2023-06-10T13:57:44;6.32;;;4.55;;
62903;SDS011;49000;50.698;13.322;2023-06-10T14:00:09;6.38;;;5.10;;
62903;SDS011;49000;50.698;13.322;2023-06-10T14:02:35;5.88;;;5.38;;
62903;SDS011;49000;50.698;13.322;2023-06-10T14:05:00;5.40;;;5.00;;
62903;SDS011;49000;50.698;13.322;2023-06-10T14:07:26;5.72;;;4.80;;
62903;SDS011;49000;50.698;13.322;2023-06-10T14:09:52;5.10;;;4.60;;
62903;SDS011;49000;50.698;13.322;2023-06-10T14:12:17;6.00;;;5.43;;
62903;SDS011;49000;50.698;13.322;2023-06-10T14:14:43;5.38;;;4.93;;
62903;SDS011;49000;50.698;13.322;2023-06-10T14:17:08;5.82;;;4.57;;
62903;SDS011;49000;50.698;13.322;2023-06-10T14:19:34;4.90;;;4.50;;
62903;SDS011;49000;50.698;13.322;2023-06-10T14:21:59;6.82;;;4.95;;
62903;SDS011;49000;50.698;13.322;2023-06-10T14:24:25;5.18;;;4.68;;
62903;SDS011;49000;50.698;13.322;2023-06-10T14:26:50;5.60;;;4.80;;
62903;SDS011;49000;50.698;13.322;2023-06-10T14:29:16;5.03;;;4.53;;
62903;SDS011;49000;50.698;13.322;2023-06-10T14:31:43;5.85;;;4.55;;
62903;SDS011;49000;50.698;13.322;2023-06-10T14:34:08;7.43;;;5.32;;
62903;SDS011;49000;50.698;13.322;2023-06-10T14:36:34;5.63;;;5.10;;
62903;SDS011;49000;50.698;13.322;2023-06-10T14:39:00;7.25;;;5.13;;
62903;SDS011;49000;50.698;13.322;2023-06-10T14:41:25;5.85;;;5.18;;